createdAt,value
2022-09-25T00:01:21.120Z,94611.19
2022-09-25T00:03:49.058Z,94609.47
2022-09-25T00:06:21.689Z,94613.13
2022-09-25T00:08:49.801Z,94614.19
2022-09-25T00:11:24.946Z,94612.19
2022-09-25T00:13:53.185Z,94617.59
2022-09-25T00:16:27.046Z,94614.97
2022-09-25T00:19:21.911Z,94614.63
2022-09-25T00:21:52.881Z,94616.66
2022-09-25T00:24:20.747Z,94622.53
2022-09-25T00:26:47.786Z,94622.53
2022-09-25T00:29:19.136Z,94617.47
2022-09-25T00:31:46.543Z,94616.09
2022-09-25T00:34:13.960Z,94619.09
2022-09-25T00:36:41.225Z,94611.38
2022-09-25T00:39:08.149Z,94617.47
2022-09-25T00:41:35.391Z,94616.47
2022-09-25T00:44:04.650Z,94606.34
2022-09-25T00:46:34.645Z,94618.03
2022-09-25T00:49:13.978Z,94605.09
2022-09-25T00:51:54.584Z,94600.81
2022-09-25T00:54:54.489Z,94600.25
2022-09-25T00:57:26.621Z,94592.34
2022-09-25T01:00:25.236Z,94588.09
2022-09-25T01:02:54.804Z,94591.75
2022-09-25T01:05:29.714Z,94583.47
2022-09-25T01:08:00.709Z,94584.50
2022-09-25T01:10:28.642Z,94574.97
2022-09-25T01:12:57.734Z,94582.88
2022-09-25T01:15:44.105Z,94578.88
2022-09-25T01:18:51.314Z,94581.97
2022-09-25T01:21:54.973Z,94575.97
2022-09-25T01:24:44.913Z,94580.00
2022-09-25T01:27:41.321Z,94584.69
2022-09-25T01:30:18.673Z,94582.28
2022-09-25T01:32:52.737Z,94577.00
2022-09-25T01:36:24.266Z,94572.16
2022-09-25T01:38:58.093Z,94573.19
2022-09-25T01:41:35.801Z,94568.72
2022-09-25T01:44:16.471Z,94572.38
2022-09-25T01:46:48.095Z,94568.13
2022-09-25T01:49:29.705Z,94572.38
2022-09-25T01:51:58.796Z,94562.50
2022-09-25T01:54:42.214Z,94560.44
2022-09-25T01:57:49.245Z,94572.84
2022-09-25T02:00:21.845Z,94561.47
2022-09-25T02:02:55.475Z,94568.59
2022-09-25T02:05:42.492Z,94562.72
2022-09-25T02:08:19.420Z,94566.97
2022-09-25T02:10:56.098Z,94556.84
2022-09-25T02:13:27.815Z,94557.91
2022-09-25T02:16:05.440Z,94569.47
2022-09-25T02:18:51.480Z,94559.72
2022-09-25T02:22:04.366Z,94548.81
2022-09-25T02:24:40.284Z,94564.63
2022-09-25T02:27:07.568Z,94565.47
2022-09-25T02:29:35.085Z,94564.41
2022-09-25T02:32:16.889Z,94563.38
2022-09-25T02:34:43.922Z,94560.97
2022-09-25T02:37:18.166Z,94560.75
2022-09-25T02:39:49.978Z,94553.84
2022-09-25T02:42:50.731Z,94556.50
2022-09-25T02:45:27.005Z,94547.00
2022-09-25T02:48:54.720Z,94552.69
2022-09-25T02:51:35.364Z,94556.13
2022-09-25T02:54:22.639Z,94555.34
2022-09-25T02:57:21.934Z,94553.94
2022-09-25T02:59:58.301Z,94557.03
2022-09-25T03:02:28.188Z,94554.19
2022-09-25T03:04:58.329Z,94552.78
2022-09-25T03:07:25.926Z,94555.75
2022-09-25T03:09:55.373Z,94556.22
2022-09-25T03:12:22.283Z,94560.03
2022-09-25T03:14:49.783Z,94566.31
2022-09-25T03:17:17.819Z,94562.66
2022-09-25T03:19:44.790Z,94563.25
2022-09-25T03:22:12.067Z,94561.41
2022-09-25T03:24:38.998Z,94563.03
2022-09-25T03:27:05.990Z,94554.31
2022-09-25T03:29:33.702Z,94547.44
2022-09-25T03:32:01.789Z,94550.66
2022-09-25T03:34:28.769Z,94544.56
2022-09-25T03:36:55.857Z,94545.38
2022-09-25T03:39:23.257Z,94546.19
2022-09-25T03:41:50.315Z,94544.34
2022-09-25T03:44:17.433Z,94545.38
2022-09-25T03:46:44.485Z,94549.63
2022-09-25T03:49:12.782Z,94552.47
2022-09-25T03:51:41.077Z,94543.78
2022-09-25T03:54:08.181Z,94550.84
2022-09-25T03:56:35.378Z,94539.38
2022-09-25T03:59:02.352Z,94546.41
2022-09-25T04:01:30.624Z,94542.94
2022-09-25T04:03:58.126Z,94542.59
2022-09-25T04:06:27.141Z,94546.84
2022-09-25T04:08:55.311Z,94546.84
2022-09-25T04:11:25.163Z,94538.00
2022-09-25T04:13:53.128Z,94550.72
2022-09-25T04:16:23.940Z,94537.78
2022-09-25T04:18:51.488Z,94537.19
2022-09-25T04:21:19.029Z,94537.63
2022-09-25T04:24:04.960Z,94537.41
2022-09-25T04:26:33.480Z,94540.47
2022-09-25T04:29:01.744Z,94547.34
2022-09-25T04:31:30.194Z,94541.28
2022-09-25T04:33:57.251Z,94548.38
2022-09-25T04:36:24.537Z,94551.84
2022-09-25T04:38:51.632Z,94548.00
2022-09-25T04:41:20.450Z,94540.34
2022-09-25T04:43:48.646Z,94543.34
2022-09-25T04:46:21.844Z,94537.34
2022-09-25T04:48:50.149Z,94536.69
2022-09-25T04:51:17.464Z,94534.50
2022-09-25T04:53:44.767Z,94532.28
2022-09-25T04:56:15.534Z,94535.53
2022-09-25T04:58:49.743Z,94538.94
2022-09-25T05:01:20.151Z,94543.44
2022-09-25T05:03:53.926Z,94543.44
2022-09-25T05:06:22.736Z,94549.84
2022-09-25T05:08:50.363Z,94551.25
2022-09-25T05:11:18.272Z,94549.19
2022-09-25T05:13:46.753Z,94550.59
2022-09-25T05:16:14.497Z,94558.88
2022-09-25T05:18:41.911Z,94553.94
2022-09-25T05:21:09.669Z,94551.69
2022-09-25T05:23:37.183Z,94558.34
2022-09-25T05:26:04.527Z,94543.53
2022-09-25T05:28:33.140Z,94544.34
2022-09-25T05:31:05.128Z,94545.94
2022-09-25T05:33:34.112Z,94558.25
2022-09-25T05:36:07.431Z,94555.28
2022-09-25T05:38:39.445Z,94561.69
2022-09-25T05:41:09.142Z,94558.69
2022-09-25T05:43:44.122Z,94560.09
2022-09-25T05:46:11.578Z,94564.09
2022-09-25T05:48:38.958Z,94556.44
2022-09-25T05:51:06.899Z,94567.34
2022-09-25T05:53:34.489Z,94556.78
2022-09-25T05:56:05.173Z,94559.44
2022-09-25T05:58:34.204Z,94567.69
2022-09-25T06:01:06.930Z,94561.84
2022-09-25T06:03:34.271Z,94566.22
2022-09-25T06:06:02.383Z,94567.81
2022-09-25T06:08:32.989Z,94574.06
2022-09-25T06:11:01.307Z,94558.66
2022-09-25T06:13:32.879Z,94569.69
2022-09-25T06:16:00.280Z,94560.41
2022-09-25T06:18:28.001Z,94566.41
2022-09-25T06:21:05.321Z,94567.56
2022-09-25T06:23:32.809Z,94559.66
2022-09-25T06:26:06.038Z,94569.69
2022-09-25T06:28:33.615Z,94565.78
2022-09-25T06:31:02.970Z,94563.84
2022-09-25T06:33:31.199Z,94557.31
2022-09-25T06:35:59.010Z,94566.53
2022-09-25T06:38:26.017Z,94567.13
2022-09-25T06:40:54.037Z,94568.19
2022-09-25T06:43:23.032Z,94560.38
2022-09-25T06:45:51.399Z,94561.53
2022-09-25T06:48:18.815Z,94567.06
2022-09-25T06:50:55.241Z,94559.47
2022-09-25T06:53:26.036Z,94562.13
2022-09-25T06:55:56.610Z,94551.09
2022-09-25T06:58:25.710Z,94554.44
2022-09-25T07:00:55.887Z,94558.09
2022-09-25T07:03:42.143Z,94565.44
2022-09-25T07:06:12.962Z,94563.72
2022-09-25T07:08:40.882Z,94560.94
2022-09-25T07:11:08.214Z,94554.97
2022-09-25T07:13:36.964Z,94556.09
2022-09-25T07:16:27.001Z,94541.06
2022-09-25T07:19:02.823Z,94540.25
2022-09-25T07:21:32.370Z,94549.78
2022-09-25T07:23:59.768Z,94549.25
2022-09-25T07:26:33.852Z,94557.16
2022-09-25T07:29:04.760Z,94552.66
2022-09-25T07:31:35.067Z,94543.81
2022-09-25T07:34:03.150Z,94553.47
2022-09-25T07:36:30.528Z,94552.34
2022-09-25T07:38:57.734Z,94548.91
2022-09-25T07:41:24.883Z,94558.53
2022-09-25T07:46:46.369Z,94547.84
2022-09-25T07:49:14.206Z,94559.44
2022-09-25T07:51:41.289Z,94558.41
2022-09-25T07:54:08.595Z,94551.88
2022-09-25T07:56:38.037Z,94553.03
2022-09-25T07:59:05.511Z,94550.13
2022-09-25T08:01:32.572Z,94545.75
2022-09-25T08:04:00.136Z,94548.84
2022-09-25T08:06:27.405Z,94551.00
2022-09-25T08:08:54.518Z,94556.72
2022-09-25T08:11:23.274Z,94559.94
2022-09-25T08:13:50.519Z,94555.13
2022-09-25T08:16:20.726Z,94541.41
2022-09-25T08:18:48.777Z,94535.19
2022-09-25T08:21:19.912Z,94525.41
2022-09-25T08:23:53.100Z,94522.94
2022-09-25T08:26:22.550Z,94523.13
2022-09-25T08:28:50.867Z,94517.75
2022-09-25T08:31:18.272Z,94520.91
2022-09-25T08:33:50.841Z,94523.00
2022-09-25T08:36:19.368Z,94514.19
2022-09-25T08:38:46.747Z,94523.66
2022-09-25T08:41:26.939Z,94521.41
2022-09-25T08:44:11.458Z,94526.84
2022-09-25T08:47:09.762Z,94531.19
2022-09-25T08:50:11.751Z,94528.88
2022-09-25T08:52:45.119Z,94528.88
2022-09-25T08:55:52.862Z,94532.63
2022-09-25T08:58:42.886Z,94524.41
2022-09-25T09:01:42.712Z,94522.09
2022-09-25T09:04:19.573Z,94525.94
2022-09-25T09:07:24.745Z,94518.03
2022-09-25T09:09:48.367Z,94519.28
2022-09-25T09:12:31.912Z,94525.56
2022-09-25T09:15:28.924Z,94531.63
2022-09-25T09:18:00.355Z,94532.09
2022-09-25T09:20:54.525Z,94534.16
2022-09-25T09:23:25.370Z,94529.50
2022-09-25T09:26:03.478Z,94535.94
2022-09-25T09:28:58.760Z,94537.31
2022-09-25T09:32:21.877Z,94533.28
2022-09-25T09:35:12.830Z,94534.88
2022-09-25T09:38:10.455Z,94530.88
2022-09-25T09:41:13.857Z,94534.22
2022-09-25T09:43:57.332Z,94538.13
2022-09-25T09:46:38.400Z,94539.69
2022-09-25T09:49:33.642Z,94527.41
2022-09-25T09:52:34.549Z,94520.19
2022-09-25T09:55:33.259Z,94513.78
2022-09-25T09:58:09.480Z,94508.50
2022-09-25T10:00:39.624Z,94497.16
2022-09-25T10:03:19.944Z,94492.66
2022-09-25T10:05:50.522Z,94494.38
2022-09-25T10:08:18.327Z,94491.00
2022-09-25T10:10:51.860Z,94486.59
2022-09-25T10:13:32.525Z,94495.25
2022-09-25T10:16:05.609Z,94491.38
2022-09-25T10:18:43.039Z,94487.44
2022-09-25T10:21:22.906Z,94486.50
2022-09-25T10:24:04.225Z,94480.19
2022-09-25T10:26:40.041Z,94488.00
2022-09-25T10:29:10.356Z,94488.88
2022-09-25T10:31:40.387Z,94489.19
2022-09-25T10:34:22.271Z,94495.34
2022-09-25T10:36:52.776Z,94487.38
2022-09-25T10:39:44.045Z,94498.84
2022-09-25T10:42:37.830Z,94497.00
2022-09-25T10:45:23.168Z,94489.28
2022-09-25T10:48:10.340Z,94488.75
2022-09-25T10:50:37.684Z,94486.91
2022-09-25T10:53:06.927Z,94485.31
2022-09-25T10:55:38.949Z,94489.03
2022-09-25T10:58:21.223Z,94467.44
2022-09-25T11:00:52.419Z,94480.22
2022-09-25T11:03:25.577Z,94483.16
2022-09-25T11:05:59.728Z,94471.13
2022-09-25T11:08:33.090Z,94478.34
2022-09-25T11:11:03.108Z,94475.91
2022-09-25T11:13:47.372Z,94476.72
2022-09-25T11:16:14.694Z,94470.84
2022-09-25T11:18:52.387Z,94465.53
2022-09-25T11:21:29.530Z,94467.38
2022-09-25T11:25:05.002Z,94462.31
2022-09-25T11:27:58.486Z,94451.16
2022-09-25T11:30:32.487Z,94448.50
2022-09-25T11:33:42.394Z,94434.13
2022-09-25T11:36:18.952Z,94439.44
2022-09-25T11:39:15.043Z,94440.00
2022-09-25T11:42:12.117Z,94433.06
2022-09-25T11:45:40.719Z,94439.19
2022-09-25T11:48:21.273Z,94439.44
2022-09-25T11:51:02.244Z,94430.66
2022-09-25T11:54:31.941Z,94431.47
2022-09-25T11:57:11.131Z,94426.66
2022-09-25T12:00:07.890Z,94435.75
2022-09-25T12:02:52.974Z,94425.91
2022-09-25T12:06:16.520Z,94418.97
2022-09-25T12:09:10.499Z,94411.78
2022-09-25T12:12:15.730Z,94415.78
2022-09-25T12:15:31.576Z,94414.72
2022-09-25T12:18:29.387Z,94409.41
2022-09-25T12:22:11.455Z,94419.78
2022-09-25T12:25:05.130Z,94428.03
2022-09-25T12:28:25.030Z,94426.44
2022-09-25T12:31:08.972Z,94430.72
2022-09-25T12:33:58.137Z,94428.03
2022-09-25T12:36:41.905Z,94423.78
2022-09-25T12:39:58.311Z,94423.50
2022-09-25T12:42:57.592Z,94427.22
2022-09-25T12:45:45.725Z,94409.66
2022-09-25T12:48:24.181Z,94402.72
2022-09-25T12:51:17.614Z,94398.69
2022-09-25T12:53:57.574Z,94400.03
2022-09-25T12:56:43.656Z,94398.41
2022-09-25T12:59:41.513Z,94391.19
2022-09-25T13:02:52.728Z,94385.53
2022-09-25T13:05:45.439Z,94385.53
2022-09-25T13:08:46.829Z,94384.47
2022-09-25T13:11:34.605Z,94388.22
2022-09-25T13:14:03.438Z,94386.09
2022-09-25T13:16:30.612Z,94383.41
2022-09-25T13:19:29.113Z,94369.81
2022-09-25T13:22:12.737Z,94374.59
2022-09-25T13:25:13.890Z,94378.06
2022-09-25T13:27:46.627Z,94381.22
2022-09-25T13:30:29.772Z,94373.50
2022-09-25T13:33:01.252Z,94376.44
2022-09-25T13:35:31.429Z,94372.16
2022-09-25T13:38:40.109Z,94376.16
2022-09-25T13:41:13.991Z,94370.59
2022-09-25T13:43:41.611Z,94373.00
2022-09-25T13:46:15.192Z,94370.31
2022-09-25T13:48:42.649Z,94358.91
2022-09-25T13:51:19.012Z,94365.81
2022-09-25T13:54:05.416Z,94351.44
2022-09-25T13:56:41.386Z,94347.41
2022-09-25T13:59:15.071Z,94342.63
2022-09-25T14:01:55.411Z,94345.28
2022-09-25T14:04:37.640Z,94347.69
2022-09-25T14:07:23.605Z,94350.09
2022-09-25T14:09:55.055Z,94354.41
2022-09-25T14:12:40.747Z,94351.22
2022-09-25T14:15:13.610Z,94354.69
2022-09-25T14:17:43.809Z,94353.13
2022-09-25T14:20:29.102Z,94349.16
2022-09-25T14:23:00.583Z,94355.28
2022-09-25T14:25:37.441Z,94351.56
2022-09-25T14:28:23.594Z,94347.56
2022-09-25T14:31:15.432Z,94348.09
2022-09-25T14:34:10.152Z,94348.66
2022-09-25T14:38:44.028Z,94340.13
2022-09-25T14:41:39.525Z,94337.72
2022-09-25T14:44:31.965Z,94338.47
2022-09-25T14:46:59.378Z,94342.97
2022-09-25T14:49:37.891Z,94342.97
2022-09-25T14:52:10.914Z,94337.09
2022-09-25T14:54:44.490Z,94335.75
2022-09-25T14:57:17.341Z,94335.72
2022-09-25T14:59:50.742Z,94343.41
2022-09-25T15:02:43.789Z,94338.63
2022-09-25T15:05:18.549Z,94346.56
2022-09-25T15:07:47.297Z,94343.59
2022-09-25T15:10:33.035Z,94341.44
2022-09-25T15:13:21.021Z,94341.41
2022-09-25T15:16:16.007Z,94351.22
2022-09-25T15:18:46.823Z,94350.88
2022-09-25T15:21:27.031Z,94352.97
2022-09-25T15:23:59.617Z,94349.44
2022-09-25T15:26:28.979Z,94340.09
2022-09-25T15:28:56.817Z,94344.56
2022-09-25T15:31:24.775Z,94345.88
2022-09-25T15:34:13.366Z,94342.63
2022-09-25T15:36:40.509Z,94348.16
2022-09-25T15:39:16.582Z,94342.28
2022-09-25T15:41:44.706Z,94342.19
2022-09-25T15:44:24.191Z,94341.09
2022-09-25T15:47:01.920Z,94346.59
2022-09-25T15:49:39.231Z,94345.22
2022-09-25T15:52:33.769Z,94342.75
2022-09-25T15:55:14.809Z,94350.66
2022-09-25T15:57:42.415Z,94349.56
2022-09-25T16:00:40.961Z,94347.13
2022-09-25T16:03:38.431Z,94348.09
2022-09-25T16:06:06.373Z,94346.69
2022-09-25T16:08:36.507Z,94343.19
2022-09-25T16:11:22.718Z,94346.59
2022-09-25T16:13:53.939Z,94353.69
2022-09-25T16:16:30.261Z,94337.44
2022-09-25T16:19:27.903Z,94346.13
2022-09-25T16:21:55.843Z,94338.66
2022-09-25T16:24:29.346Z,94342.28
2022-09-25T16:27:03.375Z,94335.13
2022-09-25T16:29:34.311Z,94341.69
2022-09-25T16:32:06.351Z,94337.47
2022-09-25T16:34:37.847Z,94327.28
2022-09-25T16:37:18.765Z,94333.63
2022-09-25T16:39:47.254Z,94335.78
2022-09-25T16:42:39.531Z,94328.31
2022-09-25T16:45:33.233Z,94319.50
2022-09-25T16:48:35.435Z,94314.72
2022-09-25T16:51:03.315Z,94314.97
2022-09-25T16:53:32.263Z,94320.97
2022-09-25T16:55:59.495Z,94315.66
2022-09-25T16:58:27.091Z,94309.25
2022-09-25T17:00:54.145Z,94314.78
2022-09-25T17:03:21.747Z,94313.44
2022-09-25T17:05:49.619Z,94311.28
2022-09-25T17:08:24.119Z,94304.09
2022-09-25T17:10:52.719Z,94308.31
2022-09-25T17:13:27.977Z,94302.16
2022-09-25T17:15:57.328Z,94302.09
2022-09-25T17:18:24.230Z,94303.69
2022-09-25T17:20:53.431Z,94309.75
2022-09-25T17:23:23.113Z,94319.75
2022-09-25T17:26:02.919Z,94312.78
2022-09-25T17:28:30.088Z,94303.19
2022-09-25T17:30:58.022Z,94297.25
2022-09-25T17:33:25.136Z,94296.16
2022-09-25T17:36:03.443Z,94299.75
2022-09-25T17:38:33.957Z,94306.50
2022-09-25T17:41:05.904Z,94314.06
2022-09-25T17:43:33.806Z,94307.78
2022-09-25T17:46:01.342Z,94313.81
2022-09-25T17:48:32.106Z,94306.50
2022-09-25T17:51:11.091Z,94310.31
2022-09-25T17:53:39.203Z,94309.88
2022-09-25T17:56:08.985Z,94319.59
2022-09-25T17:58:36.260Z,94314.69
2022-09-25T18:01:09.513Z,94310.34
2022-09-25T18:03:36.466Z,94307.28
2022-09-25T18:06:04.117Z,94318.56
2022-09-25T18:08:31.233Z,94309.97
2022-09-25T18:10:58.810Z,94307.38
2022-09-25T18:13:26.128Z,94312.09
2022-09-25T18:15:59.970Z,94312.47
2022-09-25T18:18:49.586Z,94315.47
2022-09-25T18:21:36.546Z,94318.03
2022-09-25T18:24:04.118Z,94310.44
2022-09-25T18:26:31.690Z,94311.63
2022-09-25T18:28:58.722Z,94320.34
2022-09-25T18:31:25.813Z,94310.47
2022-09-25T18:33:55.072Z,94314.84
2022-09-25T18:36:24.161Z,94320.78
2022-09-25T18:38:52.346Z,94319.88
2022-09-25T18:41:19.651Z,94321.63
2022-09-25T18:43:46.738Z,94326.31
2022-09-25T18:46:13.940Z,94327.00
2022-09-25T18:48:47.881Z,94327.91
2022-09-25T18:51:15.923Z,94328.38
2022-09-25T18:53:45.371Z,94321.38
2022-09-25T18:56:13.148Z,94333.19
2022-09-25T18:58:40.241Z,94331.03
2022-09-25T19:01:07.639Z,94327.22
2022-09-25T19:03:40.100Z,94317.16
2022-09-25T19:06:08.344Z,94328.72
2022-09-25T19:08:36.619Z,94338.91
2022-09-25T19:11:12.249Z,94330.44
2022-09-25T19:13:40.095Z,94330.91
2022-09-25T19:16:09.491Z,94320.91
2022-09-25T19:18:37.294Z,94328.25
2022-09-25T19:21:04.764Z,94327.78
2022-09-25T19:23:35.512Z,94332.03
2022-09-25T19:26:05.057Z,94337.31
2022-09-25T19:28:35.475Z,94337.06
2022-09-25T19:31:12.294Z,94326.53
2022-09-25T19:33:39.448Z,94327.09
2022-09-25T19:36:27.382Z,94331.13
2022-09-25T19:38:56.281Z,94322.19
2022-09-25T19:41:30.139Z,94322.28
2022-09-25T19:44:01.180Z,94325.28
2022-09-25T19:46:29.335Z,94328.84
2022-09-25T19:48:56.464Z,94336.53
2022-09-25T19:51:25.534Z,94338.03
2022-09-25T19:53:54.047Z,94344.19
2022-09-25T19:56:21.543Z,94346.94
2022-09-25T19:58:51.055Z,94339.63
2022-09-25T20:01:27.573Z,94336.28
2022-09-25T20:03:56.683Z,94347.31
2022-09-25T20:06:26.270Z,94331.34
2022-09-25T20:08:58.683Z,94343.75
2022-09-25T20:11:26.037Z,94338.03
2022-09-25T20:13:55.070Z,94337.00
2022-09-25T20:16:25.760Z,94340.06
2022-09-25T20:19:02.654Z,94335.00
2022-09-25T20:21:36.312Z,94346.81
2022-09-25T20:24:06.085Z,94341.31
2022-09-25T20:26:33.255Z,94326.72
2022-09-25T20:29:04.914Z,94344.53
2022-09-25T20:31:34.302Z,94340.16
2022-09-25T20:34:02.498Z,94325.59
2022-09-25T20:36:30.287Z,94332.56
2022-09-25T20:38:58.321Z,94327.03
2022-09-25T20:41:27.094Z,94315.44
2022-09-25T20:43:56.875Z,94316.25
2022-09-25T20:46:26.008Z,94317.38
2022-09-25T20:48:57.562Z,94315.53
2022-09-25T20:51:28.950Z,94319.31
2022-09-25T20:54:03.677Z,94302.91
2022-09-25T20:56:32.813Z,94298.75
2022-09-25T20:59:01.227Z,94306.44
2022-09-25T21:01:34.932Z,94309.31
2022-09-25T21:04:05.946Z,94298.31
2022-09-25T21:06:36.106Z,94307.03
2022-09-25T21:09:07.733Z,94310.25
2022-09-25T21:11:35.521Z,94306.00
2022-09-25T21:14:03.770Z,94321.41
2022-09-25T21:16:33.179Z,94310.16
2022-09-25T21:19:04.783Z,94317.28
2022-09-25T21:21:33.544Z,94314.63
2022-09-25T21:24:02.338Z,94296.53
2022-09-25T21:26:32.354Z,94315.13
2022-09-25T21:29:03.667Z,94307.66
2022-09-25T21:31:41.785Z,94312.94
2022-09-25T21:34:15.119Z,94302.03
2022-09-25T21:36:44.182Z,94310.53
2022-09-25T21:39:11.458Z,94309.94
2022-09-25T21:41:38.984Z,94310.97
2022-09-25T21:44:13.162Z,94307.78
2022-09-25T21:46:43.305Z,94308.03
2022-09-25T21:49:18.513Z,94299.44
2022-09-25T21:51:47.764Z,94299.09
2022-09-25T21:54:16.401Z,94303.44
2022-09-25T21:56:44.616Z,94307.91
2022-09-25T21:59:12.502Z,94302.28
2022-09-25T22:01:40.469Z,94293.81
2022-09-25T22:04:12.316Z,94300.69
2022-09-25T22:06:44.645Z,94297.84
2022-09-25T22:09:20.551Z,94300.47
2022-09-25T22:11:50.335Z,94296.69
2022-09-25T22:14:19.190Z,94292.22
2022-09-25T22:16:49.878Z,94286.59
2022-09-25T22:19:21.696Z,94302.44
2022-09-25T22:21:51.631Z,94298.44
2022-09-25T22:24:19.322Z,94303.91
2022-09-25T22:26:48.706Z,94293.59
2022-09-25T22:29:16.711Z,94286.94
2022-09-25T22:31:44.579Z,94287.19
2022-09-25T22:34:25.466Z,94274.44
2022-09-25T22:36:59.207Z,94272.03
2022-09-25T22:39:28.981Z,94272.72
2022-09-25T22:41:56.427Z,94275.94
2022-09-25T22:44:24.422Z,94278.56
2022-09-25T22:46:51.514Z,94283.84
2022-09-25T22:49:18.582Z,94285.66
2022-09-25T22:51:46.075Z,94271.69
2022-09-25T22:54:14.515Z,94269.84
2022-09-25T22:56:42.776Z,94262.97
2022-09-25T22:59:16.199Z,94261.38
2022-09-25T23:01:50.870Z,94262.16
2022-09-25T23:04:22.071Z,94261.38
2022-09-25T23:06:50.453Z,94260.34
2022-09-25T23:09:21.890Z,94265.03
2022-09-25T23:11:49.576Z,94255.75
2022-09-25T23:14:23.433Z,94252.88
2022-09-25T23:16:53.285Z,94237.72
2022-09-25T23:19:21.649Z,94247.34
2022-09-25T23:21:51.157Z,94241.97
2022-09-25T23:24:19.958Z,94245.53
2022-09-25T23:26:48.034Z,94236.00
2022-09-25T23:29:17.683Z,94237.81
2022-09-25T23:31:46.535Z,94248.97
2022-09-25T23:34:14.468Z,94238.31
2022-09-25T23:36:42.266Z,94247.34
2022-09-25T23:39:14.385Z,94248.38
2022-09-25T23:41:43.301Z,94247.59
2022-09-25T23:44:11.751Z,94245.66
2022-09-25T23:46:41.606Z,94249.66
2022-09-25T23:49:09.909Z,94239.34
2022-09-25T23:51:37.796Z,94238.31
2022-09-25T23:54:05.542Z,94239.34
2022-09-25T23:56:34.862Z,94230.63
2022-09-25T23:59:03.246Z,94216.53
